Griffin, Indiana
Current Conditions -  °F | °C
As of 1:35 AM on Thursday 23 Oct 2014 (Local Time) from KCUL Reporting Station
Moderate Fog Moderate Fog  
Wind Chill: 39°   Ceiling: 500
Heat Index: 39°   Visibility: 0.5mi
Dew Point: 39°   Wind: 0mph
Humidity: 100%   Direction: NA
Pressure: 30.23"   Gusts: NA
Location:  38.2°N, 87.91°W
Report Text: KCUL 230635Z AUTO 00000KT 1/2SM FG VV005 04/04 A3023 RMK AO2 T00370037
Loading
Personal Weather Stations






























Interactive Weather Map New forecast layout! Learn more

10-Day Weather Forecast

Advertisements
Track Severe Weather on mobile